Airfield :
LOGIN :

Register | Disclaimer

   EN    FR    IT 

 










Legend :    VFR   Marginal VFR   IFR   Intensive IFR   Very Intensive IFR
Visi :
Ceiling :
>= 8 km
>= 3000ft
5 to 8 km
1000 to 3000 ft
1500m to 5 km
500 to 1000 ft
800 to 1500m
200 to 500 ft
< 800m
< 200 ft
Symbols :   Thunderstorms  Fog  Heavy snow  Heavy precipitations  Wind > 20 kt
SIGMETs :     Misc.  Thunderstorms  Icing  Turbulence  Mountain Waves  Volcanic Ashes







- Airport Elevation : 247 ft
- IATA code : BLL


EKBI - Billund

CURRENT METAR :
  • 211720Z AUTO 30009KT 3400 BR OVC004/// 07/07 Q1022

EXPIRED METARs :
  • 211650Z AUTO 28010KT 6000 OVC004/// 08/07 Q1021
  • 211620Z AUTO 28010KT 8000 OVC004/// 07/07 Q1021
  • 211550Z AUTO 29014KT 6000 OVC004/// 08/07 Q1020
  • 211520Z AUTO 28010KT 4900 BR OVC003/// 08/08 Q1020
  • 211450Z AUTO 28010KT 2600 BR OVC003/// 08/07 Q1020

TAF TAF EKBI
Valid from the 21 at 18:00 until the 22 at 18:00 UTC


211714Z 2118/2218 33010KT 5000 BKN005
TEMPO 2118/2124 1200 BR BKN002
TEMPO 2200/2202 BKN012
TEMPO 2202/2207 2000 BR BKN004
BECMG 2207/2209 13010KT SCT020
No reported NOTAMs for that airfield.



MET'MAP, your aeronautical weather chart ! - Copyright ORBIFLY December 2007 - Disclaimer

ORBIFLY MET'MAP TEAM :

Programming & Development : Alexandra Zaïnal
Concept & Development : Baudouin d'Aumeries
Co-Development & Prog : Marc-Olivier Méhu
Technical & hardware support : Manuel Goepfert

Contact : metmap@orbifly.com




SOURCES & CREDITS :

   NOAA